Aérodrome :
LOGIN :

S'inscrire | Disclaimer

   EN    FR    IT 

 










Légende :    VFR   VFR Marginal   IFR   IFR Intensif   IFR Très Intensif
Visi : 
Plafond : 
>= 8 km
>= 3000ft
5 à 8 km
1000 à 3000 ft
1500m à 5 km
500 à 1000 ft
800 à 1500m
200 à 500 ft
< 800m
< 200 ft
Symboles :   Orages  Brouillard  Fortes neiges  Fortes précipitations  Vent > 20 kt
SIGMETs :   Divers  Orages  Givrage  Turbulence  Onde Orograph.  Cendres Volcan.







- Altitude de l'aérodrome : 1910 ft
- Code IATA : RDZ
- Voir les cartes d'approche


LFCR - Rodez

DERNIER METAR :
  • 151500Z AUTO 12015KT 9999 BKN026/// BKN037/// OVC043/// ///TCU 15/12 Q1010 TEMPO 13020G30KT 4000 RA BECMG NSC

METARs EXPIRÉS :
  • 151430Z AUTO 13014G24KT 9999 BKN026/// BKN032/// BKN048/// ///CB 15/12 Q1010 TEMPO 4000 RA BECMG NSC
  • 151400Z AUTO 09009KT 7000 -RA BKN023/// OVC028/// ///CB 14/12 Q1009 TEMPO 13020G30KT 4000 RA SCT013 BKN020
  • 151330Z AUTO 05004KT 010V100 7000 RA OVC022/// ///CB 14/13 Q1009 TEMPO 13025G35KT 4000 RA SCT013 BKN020
  • 151300Z AUTO 13006KT 7000 RA BKN021/// OVC026/// ///CB 14/12 Q1009 TEMPO 13025G35KT 4000 RA SCT013 BKN020
  • 151230Z AUTO 15010KT 8000 -RA BKN024/// OVC033/// ///CB 14/12 Q1009 TEMPO 13025G35KT 4000 RA SCT013 BKN020

TAF AMD TAF LFCR
Valide du 15 à 13h jusqu'au 16 à 12h UTC


151318Z 1513/1612 13010KT 9999 BKN030
PROB30
TEMPO 1513/1516 13020G30KT 4000 RA SCT013 BKN020
BECMG 1516/1518 CAVOK
Pas de NOTAMs connus pour ce terrain.
1 SIGMET publié pour la FIR Bordeaux (LFBB) :
 
Turbulence forte
LFBB SIGMET 8 VALID 151400/151800 LFPW
LFBB BORDEAUX FIR/UIR SEV TURB FCST WI N4600 E00300 - N4400 E00245 - N4545 E00200 - N4600 E00300 SFC/FL070 STNR NC=



MET'MAP, la Météo Aéronautique d'un coup d'oeil ! - Copyright ORBIFLY Décembre 2007 - Disclaimer

ORBIFLY MET'MAP TEAM :

Programmation & Développement : Alexandra Zaïnal
Conception & Développement : Baudouin d'Aumeries
Co-Programmation & Développement : Marc-Olivier Méhu
Soutien technique & logistique : Manuel Goepfert

Contact : metmap@orbifly.com




SOURCES & CREDITS :

   NOAA